createdAt,value
2022-12-03T00:00:14.292Z,100.00
2022-12-03T00:02:44.028Z,100.00
2022-12-03T00:05:12.522Z,100.00
2022-12-03T00:07:41.441Z,100.00
2022-12-03T00:10:11.268Z,100.00
2022-12-03T00:12:39.718Z,100.00
2022-12-03T00:15:09.566Z,100.00
2022-12-03T00:17:37.910Z,100.00
2022-12-03T00:20:09.530Z,100.00
2022-12-03T00:22:37.689Z,100.00
2022-12-03T00:25:07.057Z,100.00
2022-12-03T00:27:35.156Z,100.00
2022-12-03T00:30:03.302Z,100.00
2022-12-03T00:32:31.734Z,100.00
2022-12-03T00:34:59.902Z,100.00
2022-12-03T00:37:29.466Z,100.00
2022-12-03T00:39:58.129Z,100.00
2022-12-03T00:42:26.273Z,100.00
2022-12-03T00:44:54.758Z,100.00
2022-12-03T00:47:23.108Z,100.00
2022-12-03T00:49:51.189Z,100.00
2022-12-03T00:52:19.303Z,100.00
2022-12-03T00:54:48.964Z,100.00
2022-12-03T00:57:17.201Z,100.00
2022-12-03T00:59:45.570Z,100.00
2022-12-03T01:02:13.907Z,100.00
2022-12-03T01:04:42.185Z,100.00
2022-12-03T01:07:10.556Z,100.00
2022-12-03T01:09:38.662Z,100.00
2022-12-03T01:12:08.381Z,100.00
2022-12-03T01:14:36.600Z,100.00
2022-12-03T01:17:04.792Z,100.00
2022-12-03T01:19:34.135Z,100.00
2022-12-03T01:22:02.710Z,100.00
2022-12-03T01:24:31.056Z,100.00
2022-12-03T01:26:59.184Z,100.00
2022-12-03T01:29:29.202Z,100.00
2022-12-03T01:32:14.814Z,100.00
2022-12-03T01:34:43.355Z,100.00
2022-12-03T01:37:11.472Z,100.00
2022-12-03T01:39:40.195Z,100.00
2022-12-03T01:42:09.614Z,100.00
2022-12-03T01:44:41.357Z,100.00
2022-12-03T01:47:14.973Z,100.00
2022-12-03T01:49:46.393Z,100.00
2022-12-03T01:52:16.545Z,100.00
2022-12-03T01:54:48.730Z,100.00
2022-12-03T01:57:23.342Z,100.00
2022-12-03T01:59:54.504Z,100.00
2022-12-03T02:02:25.825Z,100.00
2022-12-03T02:04:55.239Z,100.00
2022-12-03T02:07:26.958Z,100.00
2022-12-03T02:09:56.798Z,100.00
2022-12-03T02:12:29.536Z,100.00
2022-12-03T02:15:00.113Z,100.00
2022-12-03T02:17:29.231Z,100.00
2022-12-03T02:19:58.318Z,100.00
2022-12-03T02:22:35.612Z,100.00
2022-12-03T02:25:24.466Z,100.00
2022-12-03T02:27:55.172Z,100.00
2022-12-03T02:30:25.973Z,100.00
2022-12-03T02:32:55.733Z,100.00
2022-12-03T02:35:25.773Z,100.00
2022-12-03T02:37:59.468Z,100.00
2022-12-03T02:40:32.338Z,100.00
2022-12-03T02:43:02.683Z,100.00
2022-12-03T02:45:33.603Z,100.00
2022-12-03T02:48:04.890Z,100.00
2022-12-03T02:50:36.094Z,100.00
2022-12-03T02:53:07.898Z,100.00
2022-12-03T02:55:38.539Z,100.00
2022-12-03T02:58:07.554Z,100.00
2022-12-03T03:00:37.350Z,100.00
2022-12-03T03:03:07.923Z,100.00
2022-12-03T03:05:38.112Z,100.00
2022-12-03T03:08:07.627Z,100.00
2022-12-03T03:10:39.388Z,100.00
2022-12-03T03:13:11.172Z,100.00
2022-12-03T03:15:40.604Z,100.00
2022-12-03T03:18:10.192Z,100.00
2022-12-03T03:20:38.779Z,100.00
2022-12-03T03:23:14.634Z,100.00
2022-12-03T03:25:46.589Z,100.00
2022-12-03T03:28:16.381Z,100.00
2022-12-03T03:30:45.757Z,100.00
2022-12-03T03:33:15.721Z,100.00
2022-12-03T03:35:45.374Z,100.00
2022-12-03T03:38:14.346Z,100.00
2022-12-03T03:40:44.161Z,100.00
2022-12-03T03:43:14.274Z,100.00
2022-12-03T03:45:43.344Z,100.00
2022-12-03T03:48:12.631Z,100.00
2022-12-03T03:50:41.406Z,100.00
2022-12-03T03:53:12.322Z,100.00
2022-12-03T03:55:40.794Z,100.00
2022-12-03T03:58:10.481Z,100.00
2022-12-03T04:00:38.837Z,100.00
2022-12-03T04:03:08.249Z,100.00
2022-12-03T04:05:36.428Z,100.00
2022-12-03T04:08:04.628Z,100.00
2022-12-03T04:10:50.505Z,100.00
2022-12-03T04:13:20.259Z,100.00
2022-12-03T04:15:48.372Z,100.00
2022-12-03T04:18:34.154Z,100.00
2022-12-03T04:21:16.018Z,100.00
2022-12-03T04:23:44.397Z,100.00
2022-12-03T04:26:30.053Z,100.00
2022-12-03T04:28:59.724Z,100.00
2022-12-03T04:31:45.348Z,100.00
2022-12-03T04:34:31.110Z,100.00
2022-12-03T04:36:59.337Z,100.00
2022-12-03T04:39:27.546Z,100.00
2022-12-03T04:41:55.764Z,100.00
2022-12-03T04:44:37.334Z,100.00
2022-12-03T04:47:08.724Z,100.00
2022-12-03T04:49:39.458Z,100.00
2022-12-03T04:52:08.137Z,100.00
2022-12-03T04:54:36.854Z,100.00
2022-12-03T04:57:05.780Z,100.00
2022-12-03T04:59:36.408Z,100.00
2022-12-03T05:02:05.642Z,100.00
2022-12-03T05:04:33.844Z,100.00
2022-12-03T05:07:02.109Z,100.00
2022-12-03T05:09:30.477Z,100.00
2022-12-03T05:11:58.586Z,100.00
2022-12-03T05:14:26.841Z,100.00
2022-12-03T05:16:56.444Z,100.00
2022-12-03T05:19:44.582Z,100.00
2022-12-03T05:22:11.636Z,100.00
2022-12-03T05:24:39.885Z,100.00
2022-12-03T05:27:08.075Z,100.00
2022-12-03T05:29:36.208Z,100.00
2022-12-03T05:32:06.080Z,100.00
2022-12-03T05:34:34.251Z,100.00
2022-12-03T05:37:02.517Z,100.00
2022-12-03T05:39:30.607Z,100.00
2022-12-03T05:42:16.219Z,100.00
2022-12-03T05:44:44.346Z,100.00
2022-12-03T05:47:13.956Z,100.00
2022-12-03T05:49:42.086Z,100.00
2022-12-03T05:52:10.437Z,100.00
2022-12-03T05:54:38.535Z,100.00
2022-12-03T05:57:06.619Z,100.00
2022-12-03T05:59:35.039Z,100.00
2022-12-03T06:02:03.302Z,100.00
2022-12-03T06:04:32.804Z,100.00
2022-12-03T06:07:01.078Z,100.00
2022-12-03T06:09:29.183Z,100.00
2022-12-03T06:11:57.484Z,100.00
2022-12-03T06:14:25.745Z,100.00
2022-12-03T06:16:54.239Z,100.00
2022-12-03T06:19:22.419Z,100.00
2022-12-03T06:21:52.034Z,100.00
2022-12-03T06:24:20.231Z,100.00
2022-12-03T06:26:48.385Z,100.00
2022-12-03T06:29:16.519Z,100.00
2022-12-03T06:31:44.952Z,100.00
2022-12-03T06:34:13.191Z,100.00
2022-12-03T06:36:42.009Z,100.00
2022-12-03T06:39:12.060Z,100.00
2022-12-03T06:41:40.344Z,100.00
2022-12-03T06:44:08.482Z,100.00
2022-12-03T06:46:36.604Z,100.00
2022-12-03T06:49:05.416Z,100.00
2022-12-03T06:51:33.782Z,100.00
2022-12-03T06:54:02.590Z,100.00
2022-12-03T06:56:36.846Z,99.94
2022-12-03T06:59:07.298Z,100.00
2022-12-03T07:01:35.608Z,100.00
2022-12-03T07:04:03.708Z,100.00
2022-12-03T07:06:31.878Z,100.00
2022-12-03T07:09:00.411Z,100.00
2022-12-03T07:11:40.210Z,100.00
2022-12-03T07:14:11.398Z,100.00
2022-12-03T07:16:40.182Z,100.00
2022-12-03T07:19:08.651Z,100.00
2022-12-03T07:21:36.846Z,100.00
2022-12-03T07:24:05.645Z,100.00
2022-12-03T07:26:33.883Z,99.74
2022-12-03T07:29:01.953Z,99.73
2022-12-03T07:31:31.706Z,99.15
2022-12-03T07:33:59.951Z,100.00
2022-12-03T07:36:28.065Z,99.77
2022-12-03T07:38:56.280Z,98.84
2022-12-03T07:41:24.462Z,97.04
2022-12-03T07:43:52.673Z,96.58
2022-12-03T07:46:20.955Z,96.14
2022-12-03T07:48:50.544Z,96.12
2022-12-03T07:51:18.631Z,96.21
2022-12-03T07:53:46.688Z,95.69
2022-12-03T07:56:14.842Z,95.92
2022-12-03T07:58:42.971Z,95.34
2022-12-03T08:01:11.494Z,94.64
2022-12-03T08:03:40.062Z,94.51
2022-12-03T08:06:09.857Z,95.15
2022-12-03T08:08:38.178Z,94.21
2022-12-03T08:11:06.623Z,93.04
2022-12-03T08:13:35.936Z,93.13
2022-12-03T08:16:15.639Z,92.84
2022-12-03T08:18:43.812Z,92.16
2022-12-03T08:21:14.676Z,92.04
2022-12-03T08:23:42.913Z,92.95
2022-12-03T08:26:20.822Z,93.16
2022-12-03T08:28:48.933Z,92.12
2022-12-03T08:31:20.814Z,92.32
2022-12-03T08:33:50.734Z,93.13
2022-12-03T08:36:22.862Z,92.20
2022-12-03T08:38:53.170Z,90.72
2022-12-03T08:41:42.474Z,89.89
2022-12-03T08:44:22.504Z,90.62
2022-12-03T08:46:55.208Z,91.09
2022-12-03T08:49:24.005Z,91.02
2022-12-03T08:51:58.559Z,90.63
2022-12-03T08:54:27.279Z,91.26
2022-12-03T08:56:56.099Z,90.63
2022-12-03T08:59:30.900Z,89.40
2022-12-03T09:02:00.371Z,89.71
2022-12-03T09:04:32.916Z,89.24
2022-12-03T09:07:02.722Z,89.08
2022-12-03T09:09:30.848Z,88.52
2022-12-03T09:11:58.922Z,88.68
2022-12-03T09:14:27.127Z,89.35
2022-12-03T09:16:56.464Z,88.87
2022-12-03T09:19:25.398Z,90.23
2022-12-03T09:21:54.805Z,89.42
2022-12-03T09:24:24.608Z,89.15
2022-12-03T09:26:52.755Z,89.00
2022-12-03T09:29:20.893Z,90.11
2022-12-03T09:31:49.099Z,88.07
2022-12-03T09:34:18.389Z,88.58
2022-12-03T09:36:46.480Z,88.78
2022-12-03T09:39:14.613Z,89.52
2022-12-03T09:41:44.719Z,88.74
2022-12-03T09:44:17.541Z,89.72
2022-12-03T09:46:47.911Z,88.46
2022-12-03T09:49:17.856Z,87.84
2022-12-03T09:51:47.556Z,88.14
2022-12-03T09:54:24.577Z,87.59
2022-12-03T09:56:55.017Z,86.45
2022-12-03T09:59:47.581Z,87.43
2022-12-03T10:02:23.254Z,87.44
2022-12-03T10:04:51.859Z,87.72
2022-12-03T10:07:21.099Z,88.37
2022-12-03T10:09:49.235Z,88.77
2022-12-03T10:12:24.282Z,88.92
2022-12-03T10:14:53.934Z,89.32
2022-12-03T10:17:22.500Z,87.86
2022-12-03T10:19:50.714Z,87.23
2022-12-03T10:22:18.894Z,85.64
2022-12-03T10:24:47.018Z,86.31
2022-12-03T10:27:25.159Z,87.51
2022-12-03T10:29:57.362Z,86.43
2022-12-03T10:32:28.017Z,85.45
2022-12-03T10:35:10.889Z,86.11
2022-12-03T10:37:59.847Z,88.44
2022-12-03T10:40:30.569Z,86.78
2022-12-03T10:43:17.793Z,88.57
2022-12-03T10:45:46.891Z,87.99
2022-12-03T10:48:16.859Z,89.88
2022-12-03T10:50:52.481Z,89.96
2022-12-03T10:53:23.543Z,91.14
2022-12-03T10:55:53.014Z,91.60
2022-12-03T10:58:24.935Z,92.70
2022-12-03T11:00:56.110Z,91.44
2022-12-03T11:03:26.047Z,90.35
2022-12-03T11:05:55.653Z,91.65
2022-12-03T11:08:26.076Z,92.17
2022-12-03T11:10:59.803Z,90.39
2022-12-03T11:13:46.776Z,90.10
2022-12-03T11:16:16.372Z,89.26
2022-12-03T11:19:02.442Z,89.75
2022-12-03T11:21:31.897Z,90.10
2022-12-03T11:24:22.292Z,88.74
2022-12-03T11:27:23.563Z,88.20
2022-12-03T11:30:01.829Z,89.70
2022-12-03T11:33:09.102Z,90.52
2022-12-03T11:36:11.831Z,90.30
2022-12-03T11:38:55.059Z,90.50
2022-12-03T11:41:29.284Z,91.82
2022-12-03T11:44:31.682Z,92.38
2022-12-03T11:47:10.223Z,91.08
2022-12-03T11:49:48.280Z,90.62
2022-12-03T11:52:31.447Z,89.94
2022-12-03T11:55:04.803Z,88.91
2022-12-03T11:57:38.971Z,89.67
2022-12-03T12:00:16.811Z,90.32
2022-12-03T12:02:46.334Z,91.13
2022-12-03T12:05:24.353Z,90.45
2022-12-03T12:07:53.788Z,90.31
2022-12-03T12:10:42.774Z,90.48
2022-12-03T12:13:52.774Z,90.27
2022-12-03T12:16:55.201Z,90.21
2022-12-03T12:19:34.347Z,90.01
2022-12-03T12:22:32.202Z,89.88
2022-12-03T12:25:02.493Z,91.23
2022-12-03T12:27:41.030Z,90.56
2022-12-03T12:30:14.226Z,90.81
2022-12-03T12:32:47.275Z,90.20
2022-12-03T12:35:20.067Z,90.45
2022-12-03T12:37:59.239Z,91.09
2022-12-03T12:40:30.107Z,92.27
2022-12-03T12:43:05.329Z,91.58
2022-12-03T12:45:41.355Z,90.94
2022-12-03T12:48:20.403Z,91.35
2022-12-03T12:50:53.261Z,91.66
2022-12-03T12:53:25.018Z,91.46
2022-12-03T12:55:57.792Z,90.76
2022-12-03T12:58:26.628Z,91.83
2022-12-03T13:00:56.975Z,93.05
2022-12-03T13:03:28.021Z,93.65
2022-12-03T13:05:58.637Z,93.42
2022-12-03T13:08:29.211Z,94.62
2022-12-03T13:10:58.901Z,94.82
2022-12-03T13:13:32.033Z,94.00
2022-12-03T13:16:07.635Z,93.26
2022-12-03T13:18:46.615Z,93.92
2022-12-03T13:21:32.298Z,95.77
2022-12-03T13:24:01.991Z,96.39
2022-12-03T13:26:39.281Z,97.06
2022-12-03T13:29:13.632Z,97.23
2022-12-03T13:31:44.326Z,97.92
2022-12-03T13:34:20.465Z,98.21
2022-12-03T13:36:57.158Z,97.03
2022-12-03T13:39:31.161Z,97.36
2022-12-03T13:42:21.320Z,97.91
2022-12-03T13:44:51.199Z,98.06
2022-12-03T13:47:22.969Z,99.07
2022-12-03T13:49:55.552Z,99.21
2022-12-03T13:52:27.214Z,98.95
2022-12-03T13:54:57.216Z,99.05
2022-12-03T13:57:25.984Z,99.97
2022-12-03T13:59:54.384Z,98.82
2022-12-03T14:02:22.757Z,99.08
2022-12-03T14:04:54.193Z,99.15
2022-12-03T14:07:28.249Z,99.20
2022-12-03T14:09:56.799Z,99.80
2022-12-03T14:12:27.928Z,100.00
2022-12-03T14:14:57.818Z,100.00
2022-12-03T14:17:25.982Z,100.00
2022-12-03T14:19:54.394Z,100.00
2022-12-03T14:22:25.539Z,99.60
2022-12-03T14:24:55.736Z,100.00
2022-12-03T14:27:24.959Z,100.00
2022-12-03T14:29:53.878Z,100.00
2022-12-03T14:32:22.370Z,100.00
2022-12-03T14:34:50.515Z,100.00
2022-12-03T14:37:19.022Z,100.00
2022-12-03T14:39:47.204Z,100.00
2022-12-03T14:42:17.054Z,100.00
2022-12-03T14:44:46.649Z,100.00
2022-12-03T14:47:16.394Z,100.00
2022-12-03T14:49:44.635Z,100.00
2022-12-03T14:52:13.080Z,100.00
2022-12-03T14:54:42.644Z,100.00
2022-12-03T14:57:11.695Z,100.00
2022-12-03T14:59:42.655Z,100.00
2022-12-03T15:02:12.510Z,100.00
2022-12-03T15:04:41.366Z,100.00
2022-12-03T15:07:09.755Z,100.00
2022-12-03T15:09:37.967Z,100.00
2022-12-03T15:12:06.939Z,100.00
2022-12-03T15:14:35.155Z,100.00
2022-12-03T15:17:04.695Z,100.00
2022-12-03T15:19:33.322Z,100.00
2022-12-03T15:22:01.467Z,100.00
2022-12-03T15:24:29.579Z,100.00
2022-12-03T15:26:58.407Z,100.00
2022-12-03T15:29:26.754Z,100.00
2022-12-03T15:31:54.914Z,100.00
2022-12-03T15:34:24.566Z,100.00
2022-12-03T15:36:53.205Z,100.00
2022-12-03T15:39:21.405Z,100.00
2022-12-03T15:41:49.688Z,100.00
2022-12-03T15:44:17.891Z,100.00
2022-12-03T15:46:46.142Z,100.00
2022-12-03T15:49:14.223Z,100.00
2022-12-03T15:51:43.798Z,100.00
2022-12-03T15:54:12.539Z,100.00
2022-12-03T15:56:40.656Z,100.00
2022-12-03T15:59:08.856Z,100.00
2022-12-03T16:01:37.048Z,100.00
2022-12-03T16:04:05.283Z,100.00
2022-12-03T16:06:33.485Z,100.00
2022-12-03T16:09:03.131Z,100.00
2022-12-03T16:11:31.341Z,100.00
2022-12-03T16:13:59.712Z,100.00
2022-12-03T16:16:28.098Z,100.00
2022-12-03T16:18:56.355Z,100.00
2022-12-03T16:21:27.016Z,100.00
2022-12-03T16:23:55.849Z,100.00
2022-12-03T16:26:26.529Z,100.00
2022-12-03T16:28:54.660Z,100.00
2022-12-03T16:31:22.884Z,100.00
2022-12-03T16:33:51.078Z,100.00
2022-12-03T16:36:19.302Z,100.00
2022-12-03T16:38:47.591Z,100.00
2022-12-03T16:41:15.782Z,100.00
2022-12-03T16:43:47.499Z,100.00
2022-12-03T16:46:26.113Z,100.00
2022-12-03T16:48:55.501Z,100.00
2022-12-03T16:51:24.021Z,100.00
2022-12-03T16:53:52.274Z,100.00
2022-12-03T16:56:21.741Z,100.00
2022-12-03T16:58:51.260Z,100.00
2022-12-03T17:01:19.425Z,100.00
2022-12-03T17:03:47.567Z,100.00
2022-12-03T17:06:16.087Z,100.00
2022-12-03T17:08:49.422Z,100.00
2022-12-03T17:11:18.459Z,100.00
2022-12-03T17:13:46.593Z,100.00
2022-12-03T17:16:16.359Z,100.00
2022-12-03T17:18:44.513Z,100.00
2022-12-03T17:21:12.616Z,100.00
2022-12-03T17:23:41.006Z,100.00
2022-12-03T17:26:09.164Z,100.00
2022-12-03T17:28:37.288Z,100.00
2022-12-03T17:31:05.690Z,100.00
2022-12-03T17:33:35.326Z,100.00
2022-12-03T17:36:03.540Z,100.00
2022-12-03T17:38:37.304Z,100.00
2022-12-03T17:41:07.427Z,100.00
2022-12-03T17:43:35.716Z,100.00
2022-12-03T17:46:05.165Z,100.00
2022-12-03T17:48:34.914Z,100.00
2022-12-03T17:51:03.321Z,100.00
2022-12-03T17:53:31.446Z,100.00
2022-12-03T17:55:59.583Z,100.00
2022-12-03T17:58:28.607Z,100.00
2022-12-03T18:01:02.101Z,100.00
2022-12-03T18:03:31.488Z,100.00
2022-12-03T18:06:01.285Z,100.00
2022-12-03T18:08:29.483Z,100.00
2022-12-03T18:10:57.630Z,100.00
2022-12-03T18:13:27.264Z,100.00
2022-12-03T18:15:57.267Z,100.00
2022-12-03T18:18:25.516Z,100.00
2022-12-03T18:20:54.124Z,100.00
2022-12-03T18:23:23.824Z,100.00
2022-12-03T18:25:52.080Z,100.00
2022-12-03T18:28:20.217Z,100.00
2022-12-03T18:30:52.506Z,100.00
2022-12-03T18:33:23.414Z,100.00
2022-12-03T18:35:54.277Z,100.00
2022-12-03T18:38:26.931Z,100.00
2022-12-03T18:40:57.982Z,100.00
2022-12-03T18:43:28.664Z,100.00
2022-12-03T18:45:56.781Z,100.00
2022-12-03T18:48:26.010Z,100.00
2022-12-03T18:50:56.537Z,100.00
2022-12-03T18:53:26.089Z,100.00
2022-12-03T18:55:54.366Z,100.00
2022-12-03T18:58:22.574Z,100.00
2022-12-03T19:00:50.813Z,100.00
2022-12-03T19:03:18.957Z,100.00
2022-12-03T19:05:47.107Z,100.00
2022-12-03T19:08:15.434Z,100.00
2022-12-03T19:10:47.253Z,100.00
2022-12-03T19:13:15.429Z,100.00
2022-12-03T19:15:43.641Z,100.00
2022-12-03T19:18:12.002Z,100.00
2022-12-03T19:20:41.943Z,100.00
2022-12-03T19:23:10.636Z,100.00
2022-12-03T19:25:38.976Z,100.00
2022-12-03T19:28:08.448Z,100.00
2022-12-03T19:30:36.612Z,100.00
2022-12-03T19:33:04.867Z,100.00
2022-12-03T19:35:33.588Z,100.00
2022-12-03T19:38:01.722Z,100.00
2022-12-03T19:40:30.962Z,100.00
2022-12-03T19:42:59.023Z,100.00
2022-12-03T19:45:28.729Z,100.00
2022-12-03T19:47:56.882Z,100.00
2022-12-03T19:50:25.086Z,100.00
2022-12-03T19:52:53.184Z,100.00
2022-12-03T19:55:21.484Z,100.00
2022-12-03T19:57:49.821Z,100.00
2022-12-03T20:00:18.383Z,100.00
2022-12-03T20:02:49.631Z,100.00
2022-12-03T20:05:17.870Z,100.00
2022-12-03T20:07:46.045Z,100.00
2022-12-03T20:10:14.283Z,100.00
2022-12-03T20:12:42.373Z,100.00
2022-12-03T20:15:11.449Z,100.00
2022-12-03T20:17:39.495Z,100.00
2022-12-03T20:20:10.378Z,100.00
2022-12-03T20:22:38.629Z,100.00
2022-12-03T20:25:07.568Z,100.00
2022-12-03T20:27:35.950Z,100.00
2022-12-03T20:30:04.210Z,100.00
2022-12-03T20:32:32.435Z,100.00
2022-12-03T20:35:00.515Z,100.00
2022-12-03T20:37:30.130Z,100.00
2022-12-03T20:39:58.355Z,100.00
2022-12-03T20:42:26.582Z,100.00
2022-12-03T20:44:55.056Z,100.00
2022-12-03T20:47:23.286Z,100.00
2022-12-03T20:49:51.547Z,100.00
2022-12-03T20:52:19.607Z,100.00
2022-12-03T20:54:49.144Z,100.00
2022-12-03T20:57:17.247Z,100.00
2022-12-03T20:59:45.337Z,100.00
2022-12-03T21:02:13.726Z,100.00
2022-12-03T21:04:41.893Z,100.00
2022-12-03T21:07:10.047Z,100.00
2022-12-03T21:09:38.209Z,100.00
2022-12-03T21:12:08.143Z,100.00
2022-12-03T21:14:36.744Z,100.00
2022-12-03T21:17:09.413Z,100.00
2022-12-03T21:19:38.234Z,100.00
2022-12-03T21:22:06.815Z,100.00
2022-12-03T21:24:35.493Z,100.00
2022-12-03T21:27:03.809Z,100.00
2022-12-03T21:29:33.381Z,100.00
2022-12-03T21:32:01.916Z,100.00
2022-12-03T21:34:35.779Z,100.00
2022-12-03T21:37:05.193Z,100.00
2022-12-03T21:39:33.343Z,100.00
2022-12-03T21:42:18.903Z,100.00
2022-12-03T21:44:50.889Z,100.00
2022-12-03T21:47:19.109Z,100.00
2022-12-03T21:49:47.226Z,100.00
2022-12-03T21:52:15.644Z,100.00
2022-12-03T21:54:43.808Z,100.00
2022-12-03T21:57:12.078Z,100.00
2022-12-03T21:59:40.298Z,100.00
2022-12-03T22:02:10.623Z,100.00
2022-12-03T22:04:39.798Z,100.00
2022-12-03T22:07:08.178Z,100.00
2022-12-03T22:09:36.370Z,100.00
2022-12-03T22:12:04.506Z,100.00
2022-12-03T22:14:32.682Z,100.00
2022-12-03T22:17:00.759Z,100.00
2022-12-03T22:19:30.476Z,100.00
2022-12-03T22:21:58.649Z,100.00
2022-12-03T22:24:26.752Z,100.00
2022-12-03T22:26:55.097Z,100.00
2022-12-03T22:29:23.344Z,100.00
2022-12-03T22:31:51.462Z,100.00
2022-12-03T22:34:19.586Z,100.00
2022-12-03T22:36:49.070Z,100.00
2022-12-03T22:39:17.254Z,100.00
2022-12-03T22:41:45.447Z,100.00
2022-12-03T22:44:14.037Z,100.00
2022-12-03T22:46:42.226Z,100.00
2022-12-03T22:49:14.208Z,100.00
2022-12-03T22:51:42.369Z,100.00
2022-12-03T22:54:12.714Z,100.00
2022-12-03T22:56:41.067Z,100.00
2022-12-03T22:59:09.312Z,100.00
2022-12-03T23:01:39.708Z,100.00
2022-12-03T23:04:09.462Z,100.00
2022-12-03T23:06:37.982Z,100.00
2022-12-03T23:09:08.369Z,100.00
2022-12-03T23:11:37.952Z,100.00
2022-12-03T23:14:06.294Z,100.00
2022-12-03T23:16:35.029Z,100.00
2022-12-03T23:19:04.800Z,100.00
2022-12-03T23:21:34.674Z,100.00
2022-12-03T23:24:04.593Z,100.00
2022-12-03T23:26:36.009Z,100.00
2022-12-03T23:29:06.510Z,100.00
2022-12-03T23:31:35.515Z,100.00
2022-12-03T23:34:04.934Z,100.00
2022-12-03T23:36:34.623Z,100.00
2022-12-03T23:39:02.888Z,100.00
2022-12-03T23:41:31.023Z,100.00
2022-12-03T23:43:59.275Z,100.00
2022-12-03T23:46:29.507Z,100.00
2022-12-03T23:49:00.147Z,100.00
2022-12-03T23:51:28.800Z,100.00
2022-12-03T23:53:57.656Z,100.00
2022-12-03T23:56:29.162Z,100.00
2022-12-03T23:58:58.199Z,100.00
